createdAt,value
2023-02-02T00:01:35.018Z,7.50
2023-02-02T00:04:02.329Z,7.50
2023-02-02T00:06:31.097Z,7.60
2023-02-02T00:09:00.285Z,7.50
2023-02-02T00:11:27.670Z,7.50
2023-02-02T00:13:54.896Z,7.60
2023-02-02T00:16:30.970Z,7.60
2023-02-02T00:19:00.551Z,7.60
2023-02-02T00:21:28.142Z,7.50
2023-02-02T00:23:54.988Z,7.50
2023-02-02T00:26:22.045Z,7.50
2023-02-02T00:28:48.862Z,7.50
2023-02-02T00:31:15.720Z,7.50
2023-02-02T00:33:49.795Z,7.50
2023-02-02T00:36:17.941Z,7.40
2023-02-02T00:38:45.960Z,7.40
2023-02-02T00:41:12.819Z,7.30
2023-02-02T00:43:39.598Z,7.30
2023-02-02T00:46:06.636Z,7.30
2023-02-02T00:48:33.648Z,7.30
2023-02-02T00:51:02.221Z,7.20
2023-02-02T00:53:29.098Z,7.20
2023-02-02T00:55:55.883Z,7.10
2023-02-02T00:58:22.651Z,7.10
2023-02-02T01:00:49.474Z,7.10
2023-02-02T01:03:16.336Z,7.10
2023-02-02T01:05:43.128Z,7.10
2023-02-02T01:08:10.563Z,7.00
2023-02-02T01:10:37.440Z,7.10
2023-02-02T01:13:04.296Z,7.10
2023-02-02T01:15:31.276Z,7.10
2023-02-02T01:17:58.419Z,7.10
2023-02-02T01:20:25.882Z,7.10
2023-02-02T01:22:52.988Z,7.10
2023-02-02T01:25:19.886Z,7.10
2023-02-02T01:27:46.701Z,7.20
2023-02-02T01:30:13.978Z,7.20
2023-02-02T01:32:40.777Z,7.20
2023-02-02T01:35:07.988Z,7.20
2023-02-02T01:37:34.914Z,7.20
2023-02-02T01:40:01.797Z,7.20
2023-02-02T01:42:28.673Z,7.20
2023-02-02T01:45:04.372Z,7.20
2023-02-02T01:47:35.616Z,7.20
2023-02-02T01:50:04.145Z,7.30
2023-02-02T01:52:32.986Z,7.30
2023-02-02T01:55:04.465Z,7.30
2023-02-02T01:57:39.931Z,7.30
2023-02-02T02:00:12.415Z,7.30
2023-02-02T02:02:41.201Z,7.30
2023-02-02T02:05:09.140Z,7.30
2023-02-02T02:07:35.970Z,7.30
2023-02-02T02:10:03.285Z,7.30
2023-02-02T02:12:30.083Z,7.30
2023-02-02T02:15:15.645Z,7.30
2023-02-02T02:18:04.184Z,7.40
2023-02-02T02:21:07.933Z,7.30
2023-02-02T02:24:28.608Z,7.40
2023-02-02T02:27:01.219Z,7.30
2023-02-02T02:29:55.564Z,7.30
2023-02-02T02:32:28.347Z,7.30
2023-02-02T02:35:09.880Z,7.30
2023-02-02T02:37:54.622Z,7.30
2023-02-02T02:40:27.320Z,7.30
2023-02-02T02:42:59.248Z,7.20
2023-02-02T02:45:28.189Z,7.20
2023-02-02T02:47:55.483Z,7.20
2023-02-02T02:50:22.986Z,7.20
2023-02-02T02:53:02.428Z,7.20
2023-02-02T02:55:38.584Z,7.10
2023-02-02T02:58:14.129Z,7.20
2023-02-02T03:00:44.550Z,7.20
2023-02-02T03:03:26.744Z,7.10
2023-02-02T03:06:19.767Z,7.20
2023-02-02T03:08:53.916Z,7.10
2023-02-02T03:11:21.377Z,7.20
2023-02-02T03:13:48.927Z,7.20
2023-02-02T03:16:16.698Z,7.20
2023-02-02T03:18:43.979Z,7.20
2023-02-02T03:21:10.916Z,7.20
2023-02-02T03:23:38.774Z,7.20
2023-02-02T03:26:05.929Z,7.20
2023-02-02T03:28:33.084Z,7.20
2023-02-02T03:31:01.558Z,7.20
2023-02-02T03:33:30.025Z,7.30
2023-02-02T03:35:56.799Z,7.30
2023-02-02T03:38:23.616Z,7.30
2023-02-02T03:40:51.910Z,7.30
2023-02-02T03:43:25.164Z,7.30
2023-02-02T03:46:06.896Z,7.30
2023-02-02T03:48:38.211Z,7.30
2023-02-02T03:51:11.732Z,7.30
2023-02-02T03:53:39.406Z,7.30
2023-02-02T03:56:07.047Z,7.30
2023-02-02T03:58:42.803Z,7.30
2023-02-02T04:01:13.437Z,7.30
2023-02-02T04:03:40.483Z,7.40
2023-02-02T04:06:07.350Z,7.40
2023-02-02T04:08:34.596Z,7.40
2023-02-02T04:11:01.551Z,7.40
2023-02-02T04:13:28.400Z,7.40
2023-02-02T04:16:01.606Z,7.40
2023-02-02T04:18:29.467Z,7.40
2023-02-02T04:21:00.993Z,7.40
2023-02-02T04:23:29.088Z,7.40
2023-02-02T04:25:56.691Z,7.40
2023-02-02T04:28:24.222Z,7.40
2023-02-02T04:30:52.381Z,7.40
2023-02-02T04:33:20.110Z,7.50
2023-02-02T04:35:46.968Z,7.50
2023-02-02T04:38:13.833Z,7.50
2023-02-02T04:40:42.832Z,7.50
2023-02-02T04:43:10.361Z,7.50
2023-02-02T04:45:37.268Z,7.50
2023-02-02T04:48:04.812Z,7.50
2023-02-02T04:50:32.090Z,7.50
2023-02-02T04:52:58.874Z,7.50
2023-02-02T04:55:26.037Z,7.50
2023-02-02T04:57:52.996Z,7.50
2023-02-02T05:00:20.132Z,7.50
2023-02-02T05:02:46.983Z,7.50
2023-02-02T05:05:14.460Z,7.50
2023-02-02T05:07:41.399Z,7.50
2023-02-02T05:10:09.892Z,7.50
2023-02-02T05:12:36.802Z,7.60
2023-02-02T05:15:05.622Z,7.60
2023-02-02T05:17:33.331Z,7.60
2023-02-02T05:20:00.443Z,7.60
2023-02-02T05:22:27.405Z,7.60
2023-02-02T05:24:54.279Z,7.60
2023-02-02T05:27:21.139Z,7.60
2023-02-02T05:29:48.316Z,7.70
2023-02-02T05:32:15.332Z,7.60
2023-02-02T05:34:42.392Z,7.60
2023-02-02T05:37:09.243Z,7.60
2023-02-02T05:39:36.063Z,7.60
2023-02-02T05:42:02.893Z,7.70
2023-02-02T05:44:29.646Z,7.70
2023-02-02T05:46:56.398Z,7.70
2023-02-02T05:49:23.148Z,7.70
2023-02-02T05:51:57.308Z,7.70
2023-02-02T05:54:24.920Z,7.70
2023-02-02T05:56:54.562Z,7.70
2023-02-02T05:59:21.868Z,7.70
2023-02-02T06:01:49.045Z,7.80
2023-02-02T06:04:16.407Z,7.70
2023-02-02T06:06:43.992Z,7.70
2023-02-02T06:09:11.159Z,7.80
2023-02-02T06:11:39.530Z,7.80
2023-02-02T06:14:07.225Z,7.80
2023-02-02T06:16:34.127Z,7.80
2023-02-02T06:19:01.010Z,7.80
2023-02-02T06:21:31.145Z,7.80
2023-02-02T06:23:58.878Z,7.90
2023-02-02T06:26:26.455Z,7.90
2023-02-02T06:28:54.441Z,7.90
2023-02-02T06:31:22.398Z,7.90
2023-02-02T06:33:54.545Z,7.90
2023-02-02T06:36:21.529Z,7.90
2023-02-02T06:38:55.757Z,7.90
2023-02-02T06:41:23.211Z,7.90
2023-02-02T06:43:50.318Z,7.90
2023-02-02T06:46:17.599Z,7.90
2023-02-02T06:49:04.440Z,7.90
2023-02-02T06:51:32.104Z,7.90
2023-02-02T06:53:59.641Z,7.90
2023-02-02T06:56:26.687Z,7.90
2023-02-02T06:58:53.458Z,7.90
2023-02-02T07:01:20.451Z,7.90
2023-02-02T07:03:51.269Z,7.90
2023-02-02T07:06:24.643Z,7.90
2023-02-02T07:09:02.248Z,7.90
2023-02-02T07:11:32.583Z,7.90
2023-02-02T07:14:00.565Z,7.90
2023-02-02T07:16:27.488Z,7.90
2023-02-02T07:18:54.399Z,7.90
2023-02-02T07:21:28.293Z,7.80
2023-02-02T07:23:55.202Z,7.80
2023-02-02T07:26:21.994Z,7.80
2023-02-02T07:28:48.790Z,7.80
2023-02-02T07:31:21.531Z,7.80
2023-02-02T07:33:49.019Z,7.80
2023-02-02T07:36:18.074Z,7.80
2023-02-02T07:38:46.321Z,7.80
2023-02-02T07:41:14.074Z,7.80
2023-02-02T07:43:41.047Z,7.80
2023-02-02T07:46:10.557Z,7.80
2023-02-02T07:48:37.781Z,7.80
2023-02-02T07:51:07.338Z,7.80
2023-02-02T07:53:35.099Z,7.80
2023-02-02T07:56:10.704Z,7.80
2023-02-02T07:58:37.498Z,7.80
2023-02-02T08:01:07.154Z,7.80
2023-02-02T08:03:35.272Z,7.80
2023-02-02T08:06:08.514Z,7.80
2023-02-02T08:08:35.424Z,7.80
2023-02-02T08:11:02.233Z,7.80
2023-02-02T08:13:29.099Z,7.80
2023-02-02T08:15:58.524Z,7.70
2023-02-02T08:18:25.585Z,7.70
2023-02-02T08:20:52.789Z,7.70
2023-02-02T08:23:23.610Z,7.70
2023-02-02T08:25:51.243Z,7.70
2023-02-02T08:28:19.021Z,7.70
2023-02-02T08:30:46.688Z,7.70
2023-02-02T08:33:14.679Z,7.60
2023-02-02T08:35:42.975Z,7.60
2023-02-02T08:38:10.686Z,7.60
2023-02-02T08:40:37.498Z,7.60
2023-02-02T08:43:04.972Z,7.50
2023-02-02T08:46:04.204Z,7.60
2023-02-02T08:48:21.300Z,7.50
2023-02-02T08:50:59.060Z,7.50
2023-02-02T08:53:26.978Z,7.50
2023-02-02T08:56:09.646Z,7.50
2023-02-02T08:58:36.698Z,7.50
2023-02-02T09:01:24.851Z,7.50
2023-02-02T09:03:59.482Z,7.50
2023-02-02T09:06:33.595Z,7.50
2023-02-02T09:09:01.108Z,7.50
2023-02-02T09:11:28.883Z,7.50
2023-02-02T09:13:57.682Z,7.50
2023-02-02T09:16:25.649Z,7.50
2023-02-02T09:18:52.885Z,7.50
2023-02-02T09:21:20.373Z,7.50
2023-02-02T09:23:48.672Z,7.50
2023-02-02T09:26:18.999Z,7.50
2023-02-02T09:28:51.744Z,7.50
2023-02-02T09:31:19.018Z,7.50
2023-02-02T09:33:45.936Z,7.50
2023-02-02T09:36:16.965Z,7.50
2023-02-02T09:38:44.611Z,7.50
2023-02-02T09:41:29.723Z,7.50
2023-02-02T09:44:34.272Z,7.60
2023-02-02T09:47:39.933Z,7.60
2023-02-02T09:50:12.858Z,7.60
2023-02-02T09:52:43.858Z,7.60
2023-02-02T09:55:20.923Z,7.60
2023-02-02T09:57:52.678Z,7.60
2023-02-02T10:00:35.151Z,7.70
2023-02-02T10:03:11.106Z,7.70
2023-02-02T10:06:02.705Z,7.70
2023-02-02T10:08:52.389Z,7.70
2023-02-02T10:11:34.507Z,7.80
2023-02-02T10:14:07.627Z,7.80
2023-02-02T10:16:37.655Z,7.80
2023-02-02T10:19:14.905Z,7.80
2023-02-02T10:21:51.816Z,7.90
2023-02-02T10:24:26.397Z,7.90
2023-02-02T10:27:04.504Z,7.90
2023-02-02T10:29:49.070Z,8.00
2023-02-02T10:32:25.149Z,8.00
2023-02-02T10:35:12.964Z,8.00
2023-02-02T10:38:00.752Z,8.10
2023-02-02T10:40:27.895Z,8.10
2023-02-02T10:43:13.815Z,8.10
2023-02-02T10:45:43.563Z,8.10
2023-02-02T10:48:22.116Z,8.10
2023-02-02T10:50:53.921Z,8.20
2023-02-02T10:53:22.600Z,8.20
2023-02-02T10:56:11.767Z,8.20
2023-02-02T10:58:41.667Z,8.30
2023-02-02T11:01:14.980Z,8.30
2023-02-02T11:03:42.154Z,8.30
2023-02-02T11:06:30.551Z,8.30
2023-02-02T11:08:59.687Z,8.30
2023-02-02T11:11:46.979Z,8.30
2023-02-02T11:14:20.994Z,8.30
2023-02-02T11:17:02.526Z,8.40
2023-02-02T11:19:31.260Z,8.30
2023-02-02T11:22:00.884Z,8.30
2023-02-02T11:24:49.669Z,8.40
2023-02-02T11:27:38.227Z,8.40
2023-02-02T11:30:32.511Z,8.40
2023-02-02T11:32:59.424Z,8.30
2023-02-02T11:35:29.729Z,8.40
2023-02-02T11:38:08.149Z,8.30
2023-02-02T11:40:46.216Z,8.40
2023-02-02T11:43:20.801Z,8.30
2023-02-02T11:45:53.957Z,8.20
2023-02-02T11:48:24.701Z,8.30
2023-02-02T11:50:54.732Z,8.30
2023-02-02T11:53:33.112Z,8.30
2023-02-02T11:56:05.786Z,8.30
2023-02-02T11:58:50.985Z,8.30
2023-02-02T12:01:32.614Z,8.30
2023-02-02T12:04:01.958Z,8.30
2023-02-02T12:06:39.129Z,8.30
2023-02-02T12:09:21.660Z,8.30
2023-02-02T12:12:06.911Z,8.40
2023-02-02T12:14:46.662Z,8.40
2023-02-02T12:17:31.843Z,8.40
2023-02-02T12:20:17.452Z,8.40
2023-02-02T12:22:53.277Z,8.40
2023-02-02T12:25:42.243Z,8.50
2023-02-02T12:28:43.152Z,8.50
2023-02-02T12:31:41.491Z,8.50
2023-02-02T12:34:36.667Z,8.50
2023-02-02T12:37:11.028Z,8.50
2023-02-02T12:39:56.393Z,8.50
2023-02-02T12:42:23.130Z,8.50
2023-02-02T12:45:04.995Z,8.40
2023-02-02T12:47:53.402Z,8.50
2023-02-02T12:51:16.793Z,8.50
2023-02-02T12:54:35.184Z,8.40
2023-02-02T12:56:54.589Z,8.40
2023-02-02T12:59:27.604Z,8.40
2023-02-02T13:01:54.409Z,8.40
2023-02-02T13:04:34.894Z,8.40
2023-02-02T13:07:21.427Z,8.40
2023-02-02T13:09:59.423Z,8.40
2023-02-02T13:12:28.404Z,8.40
2023-02-02T13:15:02.770Z,8.30
2023-02-02T13:17:36.402Z,8.30
2023-02-02T13:20:07.574Z,8.30
2023-02-02T13:22:43.937Z,8.30
2023-02-02T13:25:25.374Z,8.30
2023-02-02T13:27:53.595Z,8.30
2023-02-02T13:30:23.187Z,8.30
2023-02-02T13:32:53.214Z,8.30
2023-02-02T13:35:48.695Z,8.30
2023-02-02T13:38:23.851Z,8.30
2023-02-02T13:40:53.226Z,8.30
2023-02-02T13:43:43.795Z,8.30
2023-02-02T13:46:25.921Z,8.30
2023-02-02T13:49:10.973Z,8.20
2023-02-02T13:51:54.669Z,8.10
2023-02-02T13:54:44.817Z,8.10
2023-02-02T13:57:30.744Z,8.00
2023-02-02T14:00:17.370Z,8.00
2023-02-02T14:02:49.298Z,7.90
2023-02-02T14:05:30.524Z,7.90
2023-02-02T14:08:07.015Z,7.90
2023-02-02T14:10:41.335Z,7.90
2023-02-02T14:13:45.677Z,7.90
2023-02-02T14:16:38.600Z,7.90
2023-02-02T14:19:09.239Z,7.90
2023-02-02T14:21:35.998Z,7.90
2023-02-02T14:24:22.303Z,7.90
2023-02-02T14:27:00.634Z,7.90
2023-02-02T14:29:33.593Z,7.90
2023-02-02T14:32:29.321Z,7.90
2023-02-02T14:35:11.349Z,7.90
2023-02-02T14:37:59.965Z,7.90
2023-02-02T14:40:42.629Z,7.90
2023-02-02T14:43:44.742Z,7.90
2023-02-02T14:46:14.603Z,7.90
2023-02-02T14:48:47.154Z,8.00
2023-02-02T14:51:18.759Z,8.00
2023-02-02T14:54:05.876Z,8.00
2023-02-02T14:56:51.355Z,8.00
2023-02-02T14:59:31.753Z,7.90
2023-02-02T15:02:29.627Z,8.00
2023-02-02T15:05:32.935Z,8.00
2023-02-02T15:08:21.929Z,8.00
2023-02-02T15:10:53.684Z,8.00
2023-02-02T15:13:37.420Z,7.90
2023-02-02T15:16:19.995Z,8.00
2023-02-02T15:18:57.581Z,7.90
2023-02-02T15:21:26.453Z,8.00
2023-02-02T15:23:54.216Z,8.00
2023-02-02T15:26:32.909Z,7.90
2023-02-02T15:29:13.600Z,7.90
2023-02-02T15:31:44.509Z,8.00
2023-02-02T15:34:23.346Z,8.00
2023-02-02T15:36:53.772Z,8.00
2023-02-02T15:39:29.943Z,8.00
2023-02-02T15:42:17.244Z,8.00
2023-02-02T15:44:44.093Z,8.00
2023-02-02T15:47:20.091Z,8.00
2023-02-02T15:49:46.920Z,7.90
2023-02-02T15:52:27.157Z,7.90
2023-02-02T15:54:56.579Z,7.90
2023-02-02T15:57:28.439Z,7.80
2023-02-02T15:59:55.924Z,7.80
2023-02-02T16:02:36.565Z,7.80
2023-02-02T16:05:38.461Z,7.80
2023-02-02T16:08:09.468Z,7.80
2023-02-02T16:10:36.324Z,7.80
2023-02-02T16:13:03.707Z,7.70
2023-02-02T16:15:34.186Z,7.80
2023-02-02T16:18:08.016Z,7.80
2023-02-02T16:20:37.287Z,7.80
2023-02-02T16:23:11.610Z,7.70
2023-02-02T16:25:50.584Z,7.80
2023-02-02T16:28:19.367Z,7.70
2023-02-02T21:05:03.000Z,7.70
2023-02-02T21:07:30.730Z,8.20
2023-02-02T21:09:57.610Z,8.20
2023-02-02T21:12:25.760Z,8.20
2023-02-02T21:14:55.454Z,8.20
2023-02-02T21:17:22.472Z,8.20
2023-02-02T21:19:49.331Z,8.20
2023-02-02T21:22:16.212Z,8.30
2023-02-02T21:24:43.151Z,8.30
2023-02-02T22:57:24.006Z,8.30
2023-02-02T22:59:50.821Z,8.70
2023-02-02T23:02:17.595Z,8.80
2023-02-02T23:04:44.362Z,8.80
2023-02-02T23:07:11.224Z,8.80
2023-02-02T23:09:38.046Z,8.80
2023-02-02T23:12:05.155Z,8.80
2023-02-02T23:14:31.976Z,8.80
2023-02-02T23:16:58.757Z,8.80
2023-02-02T23:19:25.623Z,8.90
2023-02-02T23:21:52.725Z,8.90
2023-02-02T23:24:19.580Z,8.90
2023-02-02T23:26:46.363Z,8.90
2023-02-02T23:29:13.156Z,8.90
2023-02-02T23:31:40.113Z,8.90
2023-02-02T23:34:06.903Z,8.90
2023-02-02T23:36:33.701Z,8.90
2023-02-02T23:39:00.459Z,8.90
2023-02-02T23:41:27.370Z,8.90
2023-02-02T23:43:54.185Z,8.90
2023-02-02T23:46:21.296Z,8.90
2023-02-02T23:48:48.319Z,8.90
2023-02-02T23:51:15.402Z,8.90
2023-02-02T23:53:42.922Z,8.90
2023-02-02T23:56:09.923Z,8.90
2023-02-02T23:58:36.727Z,8.90
